Terminal Aerodrome Forecast
Issued by NWS

Current Version | Previous Version | Graphics & Text | Print | Product List | Glossary On
Versions: 1 2 3 4 5 6 7 8 9 10 11 12 13 14
367
FTUS41 KILN 230541
TAFLCK
TAF
KLCK 230541Z 2306/2406 06006KT P6SM FEW200
     FM231300 10007KT P6SM FEW150
     FM231900 14010KT P6SM SCT100
     FM232200 15008KT P6SM BKN090=

USA.gov is the U.S. government's official web portal to all federal, state and local government web resources and services.